createdAt,value
2017-02-09T00:00:42.242Z,0
2017-02-09T00:01:41.832Z,0
2017-02-09T00:02:42.322Z,0
2017-02-09T00:03:42.191Z,0
2017-02-09T00:04:42.514Z,0
2017-02-09T00:05:41.757Z,0
2017-02-09T00:06:42.168Z,0
2017-02-09T00:07:41.650Z,0
2017-02-09T00:08:41.635Z,0
2017-02-09T00:09:41.987Z,0
2017-02-09T00:10:42.008Z,0
2017-02-09T00:11:42.016Z,0
2017-02-09T00:12:41.909Z,0
2017-02-09T00:13:42.260Z,0
2017-02-09T00:14:41.864Z,0
2017-02-09T00:15:41.494Z,0
2017-02-09T00:16:41.419Z,0
2017-02-09T00:17:41.390Z,0
2017-02-09T00:18:42.122Z,0
2017-02-09T00:19:42.101Z,0
2017-02-09T00:20:41.701Z,0
2017-02-09T00:21:42.050Z,0
2017-02-09T00:22:42.002Z,0
2017-02-09T00:23:41.260Z,0
2017-02-09T00:24:41.568Z,0
2017-02-09T00:25:41.537Z,0
2017-02-09T00:26:41.517Z,0
2017-02-09T00:27:41.477Z,0
2017-02-09T00:28:41.457Z,0
2017-02-09T00:29:41.048Z,0
2017-02-09T00:30:41.805Z,0
2017-02-09T00:31:41.365Z,0
2017-02-09T00:32:41.344Z,0
2017-02-09T00:33:41.722Z,0
2017-02-09T00:34:41.689Z,0
2017-02-09T00:35:41.302Z,0
2017-02-09T00:36:41.253Z,0
2017-02-09T00:37:41.592Z,0
2017-02-09T00:38:41.571Z,0
2017-02-09T00:39:41.531Z,0
2017-02-09T00:40:40.751Z,0
2017-02-09T00:41:41.130Z,0
2017-02-09T00:42:41.060Z,0
2017-02-09T00:43:41.063Z,0
2017-02-09T00:44:40.998Z,0
2017-02-09T00:45:41.400Z,0
2017-02-09T00:46:40.567Z,0
2017-02-09T00:47:41.355Z,0
2017-02-09T00:48:40.927Z,0
2017-02-09T00:49:40.546Z,0
2017-02-09T00:50:40.863Z,0
2017-02-09T00:51:41.205Z,0
2017-02-09T00:52:41.263Z,0
2017-02-09T00:53:41.173Z,0
2017-02-09T00:54:41.173Z,0
2017-02-09T00:55:41.097Z,0
2017-02-09T00:56:40.664Z,0
2017-02-09T00:57:41.057Z,0
2017-02-09T00:58:41.011Z,0
2017-02-09T00:59:40.981Z,0
2017-02-09T01:00:40.560Z,0
2017-02-09T01:01:40.932Z,0
2017-02-09T01:02:40.900Z,0
2017-02-09T01:03:40.151Z,0
2017-02-09T01:04:40.452Z,0
2017-02-09T01:05:40.818Z,0
2017-02-09T01:06:40.795Z,0
2017-02-09T01:07:40.764Z,0
2017-02-09T01:08:40.443Z,0
2017-02-09T01:09:40.726Z,0
2017-02-09T01:10:40.670Z,0
2017-02-09T01:11:40.252Z,0
2017-02-09T01:12:40.292Z,0
2017-02-09T01:13:40.603Z,0
2017-02-09T01:14:40.565Z,0
2017-02-09T01:15:40.143Z,0
2017-02-09T01:16:40.127Z,0
2017-02-09T01:17:40.495Z,0
2017-02-09T01:18:40.061Z,0
2017-02-09T01:19:40.019Z,0
2017-02-09T01:20:40.401Z,0
2017-02-09T01:21:39.589Z,0
2017-02-09T01:22:39.938Z,0
2017-02-09T01:23:39.917Z,0
2017-02-09T01:24:40.286Z,0
2017-02-09T01:25:39.869Z,0
2017-02-09T01:26:39.536Z,0
2017-02-09T01:27:40.254Z,0
2017-02-09T01:28:39.774Z,0
2017-02-09T01:29:39.364Z,0
2017-02-09T01:30:39.753Z,0
2017-02-09T01:31:39.297Z,0
2017-02-09T01:32:39.294Z,0
2017-02-09T01:33:40.027Z,0
2017-02-09T01:34:40.001Z,0
2017-02-09T01:35:39.197Z,0
2017-02-09T01:36:39.560Z,0
2017-02-09T01:37:39.529Z,0
2017-02-09T01:38:39.931Z,0
2017-02-09T01:39:39.859Z,0
2017-02-09T01:40:39.873Z,0
2017-02-09T01:41:39.810Z,0
2017-02-09T01:42:39.437Z,0
2017-02-09T01:43:39.767Z,0
2017-02-09T01:44:39.735Z,0
2017-02-09T01:45:39.305Z,0
2017-02-09T01:46:39.302Z,0
2017-02-09T01:47:38.866Z,0
2017-02-09T01:48:39.245Z,0
2017-02-09T01:49:38.813Z,0
2017-02-09T01:50:38.774Z,0
2017-02-09T01:51:39.144Z,0
2017-02-09T01:52:39.112Z,0
2017-02-09T01:53:39.521Z,0
2017-02-09T01:54:39.063Z,0
2017-02-09T01:55:38.639Z,0
2017-02-09T01:56:39.393Z,0
2017-02-09T01:57:39.367Z,0
2017-02-09T01:58:38.949Z,0
2017-02-09T01:59:39.319Z,0
2017-02-09T02:00:38.978Z,0
2017-02-09T02:01:39.243Z,0
2017-02-09T02:02:38.827Z,0
2017-02-09T02:03:39.204Z,0
2017-02-09T02:04:39.164Z,0
2017-02-09T02:05:38.365Z,0
2017-02-09T02:06:39.116Z,0
2017-02-09T02:07:38.696Z,0
2017-02-09T02:08:38.673Z,0
2017-02-09T02:09:39.046Z,0
2017-02-09T02:10:39.012Z,0
2017-02-09T02:11:38.602Z,0
2017-02-09T02:12:38.571Z,0
2017-02-09T02:13:38.970Z,0
2017-02-09T02:14:38.931Z,0
2017-02-09T02:15:38.848Z,0
2017-02-09T02:16:38.448Z,0
2017-02-09T02:17:38.849Z,0
2017-02-09T02:18:38.787Z,0
2017-02-09T02:19:38.765Z,0
2017-02-09T02:20:38.338Z,0
2017-02-09T02:21:38.470Z,0
2017-02-09T02:22:38.686Z,0
2017-02-09T02:23:37.871Z,0
2017-02-09T02:24:38.656Z,0
2017-02-09T02:25:38.213Z,0
2017-02-09T02:26:38.593Z,0
2017-02-09T02:27:38.124Z,0
2017-02-09T02:28:38.593Z,0
2017-02-09T02:29:38.535Z,0
2017-02-09T02:30:38.507Z,0
2017-02-09T02:31:37.640Z,0
2017-02-09T02:32:37.220Z,0
2017-02-09T02:33:37.571Z,0
2017-02-09T02:34:37.938Z,0
2017-02-09T02:35:38.289Z,0
2017-02-09T02:36:37.958Z,0
2017-02-09T02:37:37.447Z,0
2017-02-09T02:38:38.237Z,0
2017-02-09T02:39:37.786Z,0
2017-02-09T02:40:37.379Z,0
2017-02-09T02:41:37.346Z,0
2017-02-09T02:42:37.716Z,0
2017-02-09T02:43:37.696Z,0
2017-02-09T02:44:38.065Z,0
2017-02-09T02:45:37.733Z,0
2017-02-09T02:46:37.598Z,0
2017-02-09T02:47:37.962Z,0
2017-02-09T02:48:37.978Z,0
2017-02-09T02:49:37.561Z,0
2017-02-09T02:50:37.102Z,0
2017-02-09T02:51:36.681Z,0
2017-02-09T02:52:37.811Z,0
2017-02-09T02:53:37.548Z,0
2017-02-09T02:54:37.369Z,0
2017-02-09T02:55:37.748Z,0
2017-02-09T02:56:36.527Z,0
2017-02-09T02:57:37.663Z,0
2017-02-09T02:58:37.267Z,0
2017-02-09T02:59:37.241Z,0
2017-02-09T03:00:37.196Z,0
2017-02-09T03:01:37.197Z,0
2017-02-09T03:02:37.521Z,0
2017-02-09T03:03:37.110Z,0
2017-02-09T03:04:37.525Z,0
2017-02-09T03:05:37.458Z,0
2017-02-09T03:06:37.045Z,0
2017-02-09T03:07:37.021Z,0
2017-02-09T03:08:37.361Z,0
2017-02-09T03:09:37.340Z,0
2017-02-09T03:10:37.010Z,0
2017-02-09T03:11:37.291Z,0
2017-02-09T03:12:37.279Z,0
2017-02-09T03:13:36.847Z,0
2017-02-09T03:14:37.268Z,0
2017-02-09T03:15:36.778Z,0
2017-02-09T03:16:36.764Z,0
2017-02-09T03:17:37.116Z,0
2017-02-09T03:18:37.147Z,0
2017-02-09T03:19:36.672Z,0
2017-02-09T03:20:36.745Z,0
2017-02-09T03:21:36.616Z,0
2017-02-09T03:22:36.594Z,0
2017-02-09T03:23:36.605Z,0
2017-02-09T03:24:36.534Z,0
2017-02-09T03:25:36.522Z,0
2017-02-09T03:26:36.972Z,0
2017-02-09T03:27:36.445Z,0
2017-02-09T03:28:36.422Z,0
2017-02-09T03:29:36.391Z,0
2017-02-09T03:30:36.371Z,0
2017-02-09T03:31:36.338Z,0
2017-02-09T03:32:36.678Z,0
2017-02-09T03:33:36.289Z,0
2017-02-09T03:34:36.247Z,0
2017-02-09T03:35:36.717Z,0
2017-02-09T03:36:36.574Z,0
2017-02-09T03:37:36.186Z,0
2017-02-09T03:38:36.186Z,0
2017-02-09T03:39:36.505Z,0
2017-02-09T03:40:36.126Z,0
2017-02-09T03:41:36.436Z,0
2017-02-09T03:42:35.655Z,0
2017-02-09T03:43:36.053Z,0
2017-02-09T03:44:36.478Z,0
2017-02-09T03:45:35.932Z,0
2017-02-09T03:46:36.312Z,0
2017-02-09T03:47:36.281Z,0
2017-02-09T03:48:36.343Z,0
2017-02-09T03:49:36.200Z,0
2017-02-09T03:50:36.181Z,0
2017-02-09T03:51:35.462Z,0
2017-02-09T03:52:36.131Z,0
2017-02-09T03:53:35.728Z,0
2017-02-09T03:54:36.087Z,0
2017-02-09T03:55:36.027Z,0
2017-02-09T03:56:35.639Z,0
2017-02-09T03:57:36.015Z,0
2017-02-09T03:58:35.945Z,0
2017-02-09T03:59:35.935Z,0
2017-02-09T04:00:35.600Z,0
2017-02-09T04:01:35.095Z,0
2017-02-09T04:02:35.833Z,0
2017-02-09T04:03:35.433Z,0
2017-02-09T04:04:35.793Z,0
2017-02-09T04:05:35.770Z,0
2017-02-09T04:06:34.955Z,0
2017-02-09T04:07:34.922Z,0
2017-02-09T04:08:35.690Z,0
2017-02-09T04:09:35.649Z,0
2017-02-09T04:10:34.839Z,0
2017-02-09T04:11:35.196Z,0
2017-02-09T04:12:35.545Z,0
2017-02-09T04:13:35.553Z,0
2017-02-09T04:14:35.118Z,0
2017-02-09T04:15:35.577Z,0
2017-02-09T04:16:35.453Z,0
2017-02-09T04:17:35.458Z,0
2017-02-09T04:18:35.390Z,0
2017-02-09T04:19:35.009Z,0
2017-02-09T04:20:35.332Z,0
2017-02-09T04:21:34.913Z,0
2017-02-09T04:22:34.885Z,0
2017-02-09T04:23:34.901Z,0
2017-02-09T04:24:34.820Z,0
2017-02-09T04:25:34.800Z,0
2017-02-09T04:26:34.759Z,0
2017-02-09T04:27:35.130Z,0
2017-02-09T04:28:34.729Z,0
2017-02-09T04:29:34.698Z,0
2017-02-09T04:30:34.659Z,0
2017-02-09T04:31:34.238Z,0
2017-02-09T04:32:34.984Z,0
2017-02-09T04:33:34.569Z,0
2017-02-09T04:34:34.596Z,0
2017-02-09T04:35:34.519Z,0
2017-02-09T04:36:34.874Z,0
2017-02-09T04:37:34.865Z,0
2017-02-09T04:38:34.036Z,0
2017-02-09T04:39:34.404Z,0
2017-02-09T04:40:34.384Z,0
2017-02-09T04:41:34.371Z,0
2017-02-09T04:42:34.313Z,0
2017-02-09T04:43:34.283Z,0
2017-02-09T04:44:34.261Z,0
2017-02-09T04:45:34.241Z,0
2017-02-09T04:46:34.210Z,0
2017-02-09T04:47:33.789Z,0
2017-02-09T04:48:34.529Z,0
2017-02-09T04:49:34.508Z,0
2017-02-09T04:50:34.129Z,0
2017-02-09T04:51:34.088Z,0
2017-02-09T04:52:34.407Z,0
2017-02-09T04:53:34.395Z,0
2017-02-09T04:54:33.986Z,0
2017-02-09T04:55:33.956Z,0
2017-02-09T04:56:34.305Z,0
2017-02-09T04:57:34.276Z,0
2017-02-09T04:58:34.233Z,0
2017-02-09T04:59:34.213Z,0
2017-02-09T05:00:34.213Z,0
2017-02-09T05:01:33.772Z,0
2017-02-09T05:02:33.732Z,0
2017-02-09T05:03:34.111Z,0
2017-02-09T05:04:34.070Z,0
2017-02-09T05:05:34.048Z,0
2017-02-09T05:06:33.650Z,0
2017-02-09T05:07:34.009Z,0
2017-02-09T05:08:33.600Z,0
2017-02-09T05:09:33.549Z,0
2017-02-09T05:10:33.509Z,0
2017-02-09T05:11:33.487Z,0
2017-02-09T05:12:33.450Z,0
2017-02-09T05:13:33.827Z,0
2017-02-09T05:14:33.795Z,0
2017-02-09T05:15:33.763Z,0
2017-02-09T05:16:33.343Z,0
2017-02-09T05:17:33.304Z,0
2017-02-09T05:18:33.670Z,0
2017-02-09T05:19:33.252Z,0
2017-02-09T05:20:33.603Z,0
2017-02-09T05:21:33.582Z,0
2017-02-09T05:22:32.780Z,0
2017-02-09T05:23:33.533Z,0
2017-02-09T05:24:33.118Z,0
2017-02-09T05:25:33.509Z,0
2017-02-09T05:26:33.062Z,0
2017-02-09T05:27:32.640Z,0
2017-02-09T05:28:32.997Z,0
2017-02-09T05:29:32.957Z,0
2017-02-09T05:30:32.554Z,0
2017-02-09T05:31:32.916Z,0
2017-02-09T05:32:32.627Z,0
2017-02-09T05:33:32.472Z,0
2017-02-09T05:34:32.472Z,0
2017-02-09T05:35:33.194Z,0
2017-02-09T05:36:33.149Z,0
2017-02-09T05:37:33.150Z,0
2017-02-09T05:38:32.343Z,0
2017-02-09T05:39:33.065Z,0
2017-02-09T05:40:32.273Z,0
2017-02-09T05:41:32.641Z,0
2017-02-09T05:42:32.589Z,0
2017-02-09T05:43:32.730Z,0
2017-02-09T05:44:32.231Z,0
2017-02-09T05:45:32.497Z,0
2017-02-09T05:46:32.488Z,0
2017-02-09T05:47:32.847Z,0
2017-02-09T05:48:32.478Z,0
2017-02-09T05:49:32.404Z,0
2017-02-09T05:50:32.357Z,0
2017-02-09T05:51:32.335Z,0
2017-02-09T05:52:32.019Z,0
2017-02-09T05:53:32.275Z,0
2017-02-09T05:54:32.255Z,0
2017-02-09T05:55:32.634Z,0
2017-02-09T05:56:32.193Z,0
2017-02-09T05:57:32.162Z,0
2017-02-09T05:58:31.732Z,0
2017-02-09T05:59:32.521Z,0
2017-02-09T06:00:32.476Z,0
2017-02-09T06:01:32.050Z,0
2017-02-09T06:02:32.408Z,0
2017-02-09T06:03:31.608Z,0
2017-02-09T06:04:32.362Z,0
2017-02-09T06:05:31.938Z,0
2017-02-09T06:06:32.290Z,0
2017-02-09T06:07:32.318Z,0
2017-02-09T06:08:32.245Z,0
2017-02-09T06:09:32.277Z,0
2017-02-09T06:10:31.786Z,0
2017-02-09T06:11:31.766Z,0
2017-02-09T06:12:31.754Z,0
2017-02-09T06:13:32.185Z,0
2017-02-09T06:14:31.674Z,0
2017-02-09T06:15:31.633Z,0
2017-02-09T06:16:31.632Z,0
2017-02-09T06:17:31.593Z,0
2017-02-09T06:18:31.560Z,0
2017-02-09T06:19:32.043Z,0
2017-02-09T06:20:31.889Z,0
2017-02-09T06:21:31.469Z,0
2017-02-09T06:22:31.816Z,0
2017-02-09T06:23:31.519Z,0
2017-02-09T06:24:31.861Z,0
2017-02-09T06:25:31.729Z,0
2017-02-09T06:26:31.334Z,0
2017-02-09T06:27:31.713Z,0
2017-02-09T06:28:31.658Z,0
2017-02-09T06:29:31.645Z,0
2017-02-09T06:30:31.595Z,0
2017-02-09T06:31:31.594Z,4
2017-02-09T06:32:30.376Z,4
2017-02-09T06:33:31.524Z,0
2017-02-09T06:34:31.494Z,0
2017-02-09T06:35:31.478Z,4
2017-02-09T06:36:31.428Z,4
2017-02-09T06:37:31.391Z,4
2017-02-09T06:38:30.981Z,4
2017-02-09T06:39:31.341Z,4
2017-02-09T06:40:30.602Z,4
2017-02-09T06:41:31.288Z,8
2017-02-09T06:42:30.489Z,8
2017-02-09T06:43:30.848Z,12
2017-02-09T06:44:31.268Z,8
2017-02-09T06:45:31.276Z,12
2017-02-09T06:46:30.768Z,12
2017-02-09T06:47:30.417Z,16
2017-02-09T06:48:31.156Z,16
2017-02-09T06:49:30.665Z,20
2017-02-09T06:50:31.174Z,20
2017-02-09T06:51:31.148Z,24
2017-02-09T06:52:30.213Z,24
2017-02-09T06:53:30.163Z,28
2017-02-09T06:54:30.955Z,28
2017-02-09T06:55:30.103Z,32
2017-02-09T06:56:30.982Z,36
2017-02-09T06:57:30.922Z,36
2017-02-09T06:58:30.414Z,36
2017-02-09T06:59:30.782Z,44
2017-02-09T07:00:30.361Z,44
2017-02-09T07:01:30.409Z,48
2017-02-09T07:02:30.350Z,52
2017-02-09T07:03:30.743Z,56
2017-02-09T07:04:30.692Z,60
2017-02-09T07:05:30.625Z,68
2017-02-09T07:06:30.185Z,76
2017-02-09T07:07:30.204Z,84
2017-02-09T07:08:30.584Z,84
2017-02-09T07:09:30.494Z,92
2017-02-09T07:10:30.504Z,96
2017-02-09T07:11:30.089Z,104
2017-02-09T07:12:30.405Z,112
2017-02-09T07:13:29.973Z,116
2017-02-09T07:14:30.021Z,124
2017-02-09T07:15:29.913Z,128
2017-02-09T07:16:29.892Z,140
2017-02-09T07:17:29.977Z,144
2017-02-09T07:18:30.219Z,148
2017-02-09T07:19:30.187Z,148
2017-02-09T07:20:30.146Z,156
2017-02-09T07:21:30.113Z,172
2017-02-09T07:22:29.335Z,184
2017-02-09T07:23:29.295Z,188
2017-02-09T07:24:29.675Z,200
2017-02-09T07:25:30.004Z,208
2017-02-09T07:26:30.029Z,216
2017-02-09T07:27:29.571Z,220
2017-02-09T07:28:29.914Z,224
2017-02-09T07:29:29.124Z,232
2017-02-09T07:30:29.090Z,240
2017-02-09T07:31:29.839Z,248
2017-02-09T07:32:29.431Z,248
2017-02-09T07:33:29.479Z,252
2017-02-09T07:34:29.350Z,256
2017-02-09T07:35:29.007Z,256
2017-02-09T07:36:29.699Z,252
2017-02-09T07:37:29.711Z,256
2017-02-09T07:38:29.247Z,264
2017-02-09T07:39:29.327Z,260
2017-02-09T07:40:29.576Z,276
2017-02-09T07:41:29.575Z,284
2017-02-09T07:42:29.135Z,296
2017-02-09T07:43:29.613Z,296
2017-02-09T07:44:29.489Z,300
2017-02-09T07:45:29.199Z,312
2017-02-09T07:46:29.458Z,324
2017-02-09T07:47:28.623Z,328
2017-02-09T07:48:28.963Z,340
2017-02-09T07:49:28.534Z,352
2017-02-09T07:50:28.909Z,352
2017-02-09T07:51:28.869Z,364
2017-02-09T07:52:29.261Z,360
2017-02-09T07:53:29.199Z,372
2017-02-09T07:54:28.402Z,372
2017-02-09T07:55:29.160Z,372
2017-02-09T07:56:29.110Z,380
2017-02-09T07:57:28.316Z,412
2017-02-09T07:58:29.059Z,448
2017-02-09T07:59:28.257Z,460
2017-02-09T08:00:28.625Z,476
2017-02-09T08:01:28.596Z,500
2017-02-09T08:02:28.953Z,532
2017-02-09T08:03:28.558Z,536
2017-02-09T08:04:28.909Z,564
2017-02-09T08:05:28.463Z,588
2017-02-09T08:06:28.446Z,608
2017-02-09T08:07:28.411Z,592
2017-02-09T08:08:28.376Z,560
2017-02-09T08:09:28.749Z,576
2017-02-09T08:10:28.311Z,584
2017-02-09T08:11:27.546Z,600
2017-02-09T08:12:27.931Z,596
2017-02-09T08:13:28.630Z,628
2017-02-09T08:14:28.268Z,636
2017-02-09T08:15:28.574Z,636
2017-02-09T08:16:28.547Z,648
2017-02-09T08:17:27.367Z,664
2017-02-09T08:18:28.106Z,664
2017-02-09T08:19:28.487Z,676
2017-02-09T08:20:28.425Z,664
2017-02-09T08:21:28.426Z,680
2017-02-09T08:22:27.984Z,704
2017-02-09T08:23:28.324Z,740
2017-02-09T08:24:27.614Z,768
2017-02-09T08:25:27.512Z,792
2017-02-09T08:26:27.081Z,824
2017-02-09T08:27:27.843Z,796
2017-02-09T08:28:27.474Z,796
2017-02-09T08:29:27.381Z,796
2017-02-09T08:30:28.130Z,808
2017-02-09T08:31:28.110Z,828
2017-02-09T08:32:28.079Z,848
2017-02-09T08:33:28.063Z,848
2017-02-09T08:34:27.257Z,832
2017-02-09T08:35:27.612Z,820
2017-02-09T08:36:27.198Z,824
2017-02-09T08:37:26.756Z,848
2017-02-09T08:38:27.997Z,852
2017-02-09T08:39:27.105Z,856
2017-02-09T08:40:27.886Z,848
2017-02-09T08:41:27.037Z,836
2017-02-09T08:42:27.415Z,832
2017-02-09T08:43:27.376Z,840
2017-02-09T08:44:27.725Z,824
2017-02-09T08:45:27.749Z,820
2017-02-09T08:46:27.293Z,812
2017-02-09T08:47:27.269Z,788
2017-02-09T08:48:27.631Z,772
2017-02-09T08:49:27.192Z,768
2017-02-09T08:50:27.550Z,756
2017-02-09T08:51:27.531Z,756
2017-02-09T08:52:26.731Z,768
2017-02-09T08:53:27.095Z,784
2017-02-09T08:54:27.091Z,804
2017-02-09T08:55:26.650Z,836
2017-02-09T08:56:27.378Z,904
2017-02-09T08:57:27.413Z,896
2017-02-09T08:58:27.334Z,912
2017-02-09T08:59:26.909Z,916
2017-02-09T09:00:26.498Z,912
2017-02-09T09:01:26.868Z,956
2017-02-09T09:02:26.437Z,1000
2017-02-09T09:03:27.177Z,1000
2017-02-09T09:04:26.776Z,972
2017-02-09T09:05:26.374Z,940
2017-02-09T09:06:26.734Z,952
2017-02-09T09:07:26.683Z,940
2017-02-09T09:08:26.647Z,952
2017-02-09T09:09:27.022Z,960
2017-02-09T09:10:26.214Z,1000
2017-02-09T09:11:26.584Z,1020
2017-02-09T09:12:26.942Z,1024
2017-02-09T09:13:26.170Z,996
2017-02-09T09:14:26.471Z,996
2017-02-09T09:15:26.859Z,1016
2017-02-09T09:16:26.470Z,1076
2017-02-09T09:17:26.397Z,1132
2017-02-09T09:18:25.993Z,1168
2017-02-09T09:19:26.718Z,1124
2017-02-09T09:20:26.758Z,1092
2017-02-09T09:21:26.294Z,1096
2017-02-09T09:22:26.675Z,1184
2017-02-09T09:23:26.227Z,1276
2017-02-09T09:24:26.195Z,1256
2017-02-09T09:25:26.565Z,1248
2017-02-09T09:26:26.151Z,1288
2017-02-09T09:27:26.565Z,1252
2017-02-09T09:28:26.546Z,1280
2017-02-09T09:29:26.054Z,1300
2017-02-09T09:30:25.637Z,1296
2017-02-09T09:31:26.012Z,1300
2017-02-09T09:32:26.373Z,1300
2017-02-09T09:33:25.954Z,1324
2017-02-09T09:34:26.329Z,1320
2017-02-09T09:35:25.870Z,1312
2017-02-09T09:36:25.459Z,1388
2017-02-09T09:37:25.875Z,1532
2017-02-09T09:38:25.443Z,1644
2017-02-09T09:39:25.836Z,1700
2017-02-09T09:40:26.139Z,1740
2017-02-09T09:41:25.824Z,1728
2017-02-09T09:42:25.717Z,1720
2017-02-09T09:43:26.055Z,1672
2017-02-09T09:44:25.626Z,1592
2017-02-09T09:45:25.717Z,1548
2017-02-09T09:46:25.979Z,1520
2017-02-09T09:47:25.143Z,1520
2017-02-09T09:48:25.526Z,1580
2017-02-09T09:49:25.863Z,1608
2017-02-09T09:50:25.840Z,1648
2017-02-09T09:51:25.802Z,1644
2017-02-09T09:52:25.781Z,1632
2017-02-09T09:53:25.375Z,1540
2017-02-09T09:54:25.351Z,1532
2017-02-09T09:55:24.919Z,1608
2017-02-09T09:56:25.658Z,1596
2017-02-09T09:57:25.267Z,1568
2017-02-09T09:58:24.838Z,1588
2017-02-09T09:59:25.577Z,1600
2017-02-09T10:00:25.167Z,1640
2017-02-09T10:01:25.554Z,1660
2017-02-09T10:02:25.553Z,1716
2017-02-09T10:03:24.326Z,1692
2017-02-09T10:04:25.763Z,1648
2017-02-09T10:05:25.416Z,1624
2017-02-09T10:06:25.006Z,1560
2017-02-09T10:07:25.398Z,1544
2017-02-09T10:08:24.654Z,1572
2017-02-09T10:09:25.298Z,1544
2017-02-09T10:10:24.923Z,1568
2017-02-09T10:11:24.912Z,1616
2017-02-09T10:12:24.935Z,1720
2017-02-09T10:13:24.410Z,1796
2017-02-09T10:14:24.461Z,1940
2017-02-09T10:15:24.788Z,2032
2017-02-09T10:16:24.729Z,2120
2017-02-09T10:17:25.140Z,2152
2017-02-09T10:18:24.749Z,1960
2017-02-09T10:19:24.310Z,1848
2017-02-09T10:20:24.617Z,1880
2017-02-09T10:21:24.669Z,1992
2017-02-09T10:22:24.165Z,2160
2017-02-09T10:23:24.906Z,2244
2017-02-09T10:24:24.877Z,2344
2017-02-09T10:25:24.552Z,2372
2017-02-09T10:26:24.471Z,2424
2017-02-09T10:27:24.792Z,2468
2017-02-09T10:28:24.394Z,2452
2017-02-09T10:29:24.751Z,2364
2017-02-09T10:30:23.921Z,2284
2017-02-09T10:31:23.951Z,2300
2017-02-09T10:32:24.655Z,2372
2017-02-09T10:33:24.010Z,2384
2017-02-09T10:34:24.601Z,2448
2017-02-09T10:35:24.579Z,2480
2017-02-09T10:36:24.142Z,2540
2017-02-09T10:37:24.528Z,2632
2017-02-09T10:38:24.489Z,2676
2017-02-09T10:39:24.088Z,2592
2017-02-09T10:40:24.167Z,2496
2017-02-09T10:41:24.428Z,2472
2017-02-09T10:42:24.380Z,2580
2017-02-09T10:43:24.025Z,2660
2017-02-09T10:44:24.334Z,2772
2017-02-09T10:45:24.294Z,2824
2017-02-09T10:46:23.889Z,2944
2017-02-09T10:47:24.244Z,2924
2017-02-09T10:48:23.854Z,2904
2017-02-09T10:49:23.801Z,2844
2017-02-09T10:50:24.151Z,2976
2017-02-09T10:51:23.740Z,3068
2017-02-09T10:52:24.107Z,2976
2017-02-09T10:53:24.063Z,2828
2017-02-09T10:54:24.039Z,2772
2017-02-09T10:55:24.009Z,2736
2017-02-09T10:56:23.988Z,2560
2017-02-09T10:57:23.947Z,2576
2017-02-09T10:58:23.916Z,2676
2017-02-09T10:59:23.164Z,2660
2017-02-09T11:00:23.095Z,2668
2017-02-09T11:01:23.896Z,2752
2017-02-09T11:02:23.814Z,2768
2017-02-09T11:03:23.405Z,2808
2017-02-09T11:04:22.974Z,2856
2017-02-09T11:05:23.423Z,2820
2017-02-09T11:06:23.315Z,2760
2017-02-09T11:07:23.367Z,2696
2017-02-09T11:08:23.243Z,2696
2017-02-09T11:09:23.320Z,2692
2017-02-09T11:10:23.593Z,2604
2017-02-09T11:11:23.691Z,2544
2017-02-09T11:12:23.541Z,2520
2017-02-09T11:13:23.250Z,2564
2017-02-09T11:14:23.480Z,2644
2017-02-09T11:15:23.070Z,2760
2017-02-09T11:16:23.038Z,2820
2017-02-09T11:17:22.661Z,2872
2017-02-09T11:18:22.987Z,2920
2017-02-09T11:19:23.336Z,2908
2017-02-09T11:20:23.315Z,2840
2017-02-09T11:21:23.287Z,2764
2017-02-09T11:22:22.565Z,2684
2017-02-09T11:23:23.240Z,2728
2017-02-09T11:24:23.206Z,2692
2017-02-09T11:25:22.774Z,2716
2017-02-09T11:26:22.772Z,2668
2017-02-09T11:27:22.015Z,2752
2017-02-09T11:28:23.095Z,2772
2017-02-09T11:29:22.291Z,2792
2017-02-09T11:30:22.679Z,2848
2017-02-09T11:31:22.289Z,2892
2017-02-09T11:32:22.649Z,2900
2017-02-09T11:33:22.158Z,2844
2017-02-09T11:34:22.527Z,2832
2017-02-09T11:35:21.856Z,2860
2017-02-09T11:36:22.464Z,2852
2017-02-09T11:37:22.456Z,2872
2017-02-09T11:38:22.438Z,2836
2017-02-09T11:39:22.442Z,2840
2017-02-09T11:40:22.756Z,2856
2017-02-09T11:41:22.377Z,2896
2017-02-09T11:42:22.403Z,2924
2017-02-09T11:43:21.883Z,2936
2017-02-09T11:44:22.355Z,2920
2017-02-09T11:45:22.237Z,2924
2017-02-09T11:46:22.182Z,3036
2017-02-09T11:47:22.563Z,3088
2017-02-09T11:48:22.515Z,3108
2017-02-09T11:49:21.738Z,3072
2017-02-09T11:50:22.469Z,3068
2017-02-09T11:51:22.071Z,3104
2017-02-09T11:52:21.258Z,3076
2017-02-09T11:53:22.445Z,3076
2017-02-09T11:54:22.367Z,3136
2017-02-09T11:55:22.336Z,3076
2017-02-09T11:56:22.321Z,3032
2017-02-09T11:57:21.903Z,3040
2017-02-09T11:58:22.265Z,3156
2017-02-09T11:59:21.445Z,3236
2017-02-09T12:00:21.836Z,3272
2017-02-09T12:01:22.172Z,3296
2017-02-09T12:02:20.992Z,3400
2017-02-09T12:03:22.114Z,3512
2017-02-09T12:04:21.715Z,3560
2017-02-09T12:05:21.661Z,3556
2017-02-09T12:06:22.021Z,3476
2017-02-09T12:07:22.023Z,3388
2017-02-09T12:08:21.980Z,3248
2017-02-09T12:09:21.539Z,3248
2017-02-09T12:10:21.538Z,3444
2017-02-09T12:11:21.889Z,3548
2017-02-09T12:12:21.499Z,3604
2017-02-09T12:13:21.060Z,3580
2017-02-09T12:14:21.817Z,3560
2017-02-09T12:15:21.417Z,3432
2017-02-09T12:16:21.363Z,3324
2017-02-09T12:17:21.712Z,3272
2017-02-09T12:18:21.695Z,3228
2017-02-09T12:19:21.722Z,3204
2017-02-09T12:20:21.623Z,3196
2017-02-09T12:21:21.230Z,3192
2017-02-09T12:22:21.193Z,3208
2017-02-09T12:23:22.362Z,3224
2017-02-09T12:24:21.541Z,3128
2017-02-09T12:25:20.730Z,2988
2017-02-09T12:26:21.085Z,2900
2017-02-09T12:27:21.071Z,2904
2017-02-09T12:28:21.130Z,2992
2017-02-09T12:29:21.400Z,3120
2017-02-09T12:30:20.976Z,3208
2017-02-09T12:31:20.961Z,3292
2017-02-09T12:32:20.917Z,3388
2017-02-09T12:33:21.266Z,3448
2017-02-09T12:34:20.853Z,3392
2017-02-09T12:35:21.281Z,3336
2017-02-09T12:36:20.408Z,3296
2017-02-09T12:37:20.498Z,3224
2017-02-09T12:38:20.776Z,3240
2017-02-09T12:39:21.136Z,3284
2017-02-09T12:40:20.427Z,3260
2017-02-09T12:41:21.065Z,3200
2017-02-09T12:42:20.274Z,3180
2017-02-09T12:43:20.283Z,3076
2017-02-09T12:44:20.200Z,3124
2017-02-09T12:45:20.170Z,3208
2017-02-09T12:46:20.533Z,3216
2017-02-09T12:47:20.891Z,3188
2017-02-09T12:48:20.871Z,3228
2017-02-09T12:49:20.458Z,3256
2017-02-09T12:50:20.817Z,3332
2017-02-09T12:51:20.797Z,3388
2017-02-09T12:52:20.366Z,3472
2017-02-09T12:53:20.350Z,3560
2017-02-09T12:54:20.376Z,3620
2017-02-09T12:55:19.994Z,3660
2017-02-09T12:56:19.954Z,3680
2017-02-09T12:57:20.244Z,3700
2017-02-09T12:58:20.608Z,3664
2017-02-09T12:59:20.182Z,3632
2017-02-09T13:00:20.211Z,3604
2017-02-09T13:01:20.530Z,3592
2017-02-09T13:02:19.702Z,3556
2017-02-09T13:03:20.128Z,3464
2017-02-09T13:04:20.429Z,3364
2017-02-09T13:05:20.389Z,3284
2017-02-09T13:06:19.994Z,3244
2017-02-09T13:07:19.959Z,3244
2017-02-09T13:08:20.336Z,3228
2017-02-09T13:09:19.924Z,3196
2017-02-09T13:10:20.277Z,3180
2017-02-09T13:11:20.290Z,3108
2017-02-09T13:12:19.807Z,3112
2017-02-09T13:13:19.420Z,3192
2017-02-09T13:14:19.757Z,3336
2017-02-09T13:15:18.956Z,3476
2017-02-09T13:16:19.737Z,3552
2017-02-09T13:17:19.691Z,3568
2017-02-09T13:18:19.663Z,3600
2017-02-09T13:19:20.028Z,3516
2017-02-09T13:20:19.992Z,3400
2017-02-09T13:21:19.980Z,3460
2017-02-09T13:22:19.999Z,3488
2017-02-09T13:23:19.908Z,3460
2017-02-09T13:24:19.916Z,3488
2017-02-09T13:25:19.480Z,3548
2017-02-09T13:26:19.449Z,3592
2017-02-09T13:27:19.047Z,3636
2017-02-09T13:28:19.379Z,3676
2017-02-09T13:29:19.747Z,3744
2017-02-09T13:30:19.734Z,3784
2017-02-09T13:31:19.715Z,3860
2017-02-09T13:32:19.284Z,3936
2017-02-09T13:33:19.623Z,3992
2017-02-09T13:34:19.621Z,4048
2017-02-09T13:35:19.589Z,4164
2017-02-09T13:36:19.176Z,4192
2017-02-09T13:37:19.153Z,4164
2017-02-09T13:38:19.508Z,4040
2017-02-09T13:39:19.493Z,3796
2017-02-09T13:40:19.461Z,3472
2017-02-09T13:41:18.681Z,3256
2017-02-09T13:42:18.621Z,3152
2017-02-09T13:43:19.371Z,3120
2017-02-09T13:44:18.957Z,3156
2017-02-09T13:45:19.319Z,3120
2017-02-09T13:46:18.904Z,3076
2017-02-09T13:47:19.258Z,2980
2017-02-09T13:48:18.490Z,2888
2017-02-09T13:49:18.818Z,2764
2017-02-09T13:50:18.407Z,2644
2017-02-09T13:51:18.385Z,2552
2017-02-09T13:52:19.146Z,2492
2017-02-09T13:53:18.703Z,2456
2017-02-09T13:54:18.674Z,2400
2017-02-09T13:55:18.661Z,2320
2017-02-09T13:56:18.322Z,2268
2017-02-09T13:57:18.591Z,2264
2017-02-09T13:58:18.579Z,2232
2017-02-09T13:59:18.932Z,2140
2017-02-09T14:00:18.972Z,2052
2017-02-09T14:01:17.768Z,1992
2017-02-09T14:02:18.491Z,1976
2017-02-09T14:03:18.078Z,1988
2017-02-09T14:04:18.008Z,2020